Norstar Integrity — V7NW6 — position and weather

sailwx.info

Track history (hours):
 
Tides and Currents Weather Stations Pressure Air Temp Water Temp Dewpoint Dewpoint Depression Visibility Wind Speed Wind Dir Waves Ship Positions

Norstar Integrity

Last reported at 2018-Apr-22 07:47 UTC. Time now 2018-Apr-23 07:25 UTC.
Position N 32°23' E 134°21'.

Length 228 m; draft 8 m.

Type: Tanker. MMSI: 538003032.

Date/timePositionNaut miles runAvg speedWind from/ knotsBaromVisibWave heightAir tempDewpointWater temp
2018-Apr-22 07:47N 32°23' E 134°21'5 3.0
2018-Apr-22 06:03N 32°23' E 134°14'1 3.2
2018-Apr-22 05:41N 32°23' E 134°13'1 3.0
2018-Apr-22 05:30N 32°22' E 134°12'53 2.5
2018-Apr-21 08:36N 32°12' E 133°11'8512.0
2018-Apr-21 01:34N 33°14' E 132°03'212.0
2018-Apr-21 01:26N 33°15' E 132°01'3 7.9
2018-Apr-21 01:00N 33°18' E 131°59'812.6
2018-Apr-21 00:22N 33°19' E 131°49'513.5
2018-Apr-20 23:59N 33°19' E 131°43'3 0.1
2018-Apr-19 23:26N 33°17' E 131°40'1 2.2
2018-Apr-19 23:00N 33°17' E 131°41'5 9.3
2018-Apr-19 22:29N 33°19' E 131°47'612.9
2018-Apr-19 22:00N 33°19' E 131°54'611.6
2018-Apr-19 21:30N 33°18' E 132°01'611.3
2018-Apr-19 21:00N 33°14' E 132°06'4 7.1
2018-Apr-19 20:30N 33°11' E 132°08'3 6.0
2018-Apr-19 19:56N 33°08' E 132°11'228 9.4
2018-Apr-18 19:34N 33°29' E 136°42'9112.7
2018-Apr-18 12:24N 34°12' E 138°19'612.4
2018-Apr-18 11:57N 34°15' E 138°25'812.2
2018-Apr-18 11:15N 34°19' E 138°34'412.0
2018-Apr-18 10:57N 34°21' E 138°38'511.9
2018-Apr-18 10:30N 34°23' E 138°44'612.3
2018-Apr-18 10:00N 34°26' E 138°50'612.9
2018-Apr-18 09:30N 34°29' E 138°57'612.2
2018-Apr-18 09:00N 34°33' E 139°02'612.7
2018-Apr-18 08:30N 34°39' E 139°06'712.7
2018-Apr-18 07:58N 34°45' E 139°10'712.0
2018-Apr-18 07:25N 34°50' E 139°15'511.8
2018-Apr-18 07:00N 34°53' E 139°20'612.1
2018-Apr-18 06:30N 34°56' E 139°26'611.8
2018-Apr-18 06:00N 34°59' E 139°32'612.7
2018-Apr-18 05:30N 35°03' E 139°39'612.3
2018-Apr-18 05:00N 35°07' E 139°44'612.4
2018-Apr-18 04:30N 35°13' E 139°46'612.0
2018-Apr-18 04:00N 35°18' E 139°43'611.4
2018-Apr-18 03:30N 35°24' E 139°43'612.6
2018-Apr-18 03:00N 35°28' E 139°49'611.9
2018-Apr-18 02:30N 35°30' E 139°56'4 0.7
2018-Apr-17 20:45N 35°29' E 140°00'0 0.2
2018-Apr-17 20:30N 35°29' E 140°00'0 0.0
2018-Apr-17 19:54N 35°29' E 140°00'0 0.0
2018-Apr-17 18:09N 35°29' E 140°00'0 0.0
2018-Apr-17 18:00N 35°29' E 140°00'0 0.0
2018-Apr-17 17:27N 35°29' E 140°00'0 0.0
2018-Apr-17 14:15N 35°29' E 140°00'0 0.0
2018-Apr-17 11:33N 35°29' E 140°00'0 0.0
2018-Apr-17 11:24N 35°29' E 140°00'0 0.0
2018-Apr-17 05:00N 35°29' E 140°00'0 0.2
2018-Apr-17 04:30N 35°29' E 140°00'2 3.3
2018-Apr-17 04:00N 35°30' E 139°59'4 7.2
2018-Apr-17 03:30N 35°29' E 139°54'5 9.5
2018-Apr-17 03:00N 35°27' E 139°49'611.7
2018-Apr-17 02:30N 35°22' E 139°45'510.6
2018-Apr-17 02:00N 35°17' E 139°46'510.2
2018-Apr-17 01:30N 35°12' E 139°47'4 7.3
2018-Apr-17 01:00N 35°08' E 139°46'4 7.5
2018-Apr-17 00:30N 35°04' E 139°45'611.5
2018-Apr-17 00:00N 34°59' E 139°41'611.5
2018-Apr-16 23:30N 34°56' E 139°36'611.8
2018-Apr-16 22:59N 34°54' E 139°29'611.8
2018-Apr-16 22:29N 34°51' E 139°23'611.4
2018-Apr-16 22:00N 34°47' E 139°17'612.2
2018-Apr-16 21:29N 34°43' E 139°12'611.3
2018-Apr-16 20:59N 34°38' E 139°09'510.8
2018-Apr-16 20:30N 34°34' E 139°04'611.4
2018-Apr-16 20:00N 34°30' E 138°60'611.2
2018-Apr-16 19:28N 34°26' E 138°54'611.8
2018-Apr-16 19:00N 34°23' E 138°48'711.9
2018-Apr-16 18:25N 34°19' E 138°41'511.8
2018-Apr-16 17:59N 34°16' E 138°36'611.9
2018-Apr-16 17:30N 34°13' E 138°31'711.9
2018-Apr-16 16:55N 34°09' E 138°24'612.0
2018-Apr-16 16:27N 34°06' E 138°18'  
Track history (hours):
 
Tides and Currents Weather Stations Pressure Air Temp Water Temp Dewpoint Dewpoint Depression Visibility Wind Speed Wind Dir Waves Ship Positions

Norstar Integrity

Last reported at 2018-Apr-22 07:47 UTC. Time now 2018-Apr-23 07:25 UTC.
Position N 32°23' E 134°21'.

Length 228 m; draft 8 m.

Type: Tanker. MMSI: 538003032.

Date/timePositionNaut miles runAvg speedWind from/ knotsBaromVisibWave heightAir tempDewpointWater temp
2018-Apr-22 07:47N 32°23' E 134°21'5 3.0
2018-Apr-22 06:03N 32°23' E 134°14'1 3.2
2018-Apr-22 05:41N 32°23' E 134°13'1 3.0
2018-Apr-22 05:30N 32°22' E 134°12'53 2.5
2018-Apr-21 08:36N 32°12' E 133°11'8512.0
2018-Apr-21 01:34N 33°14' E 132°03'212.0
2018-Apr-21 01:26N 33°15' E 132°01'3 7.9
2018-Apr-21 01:00N 33°18' E 131°59'812.6
2018-Apr-21 00:22N 33°19' E 131°49'513.5
2018-Apr-20 23:59N 33°19' E 131°43'3 0.1
2018-Apr-19 23:26N 33°17' E 131°40'1 2.2
2018-Apr-19 23:00N 33°17' E 131°41'5 9.3
2018-Apr-19 22:29N 33°19' E 131°47'612.9
2018-Apr-19 22:00N 33°19' E 131°54'611.6
2018-Apr-19 21:30N 33°18' E 132°01'611.3
2018-Apr-19 21:00N 33°14' E 132°06'4 7.1
2018-Apr-19 20:30N 33°11' E 132°08'3 6.0
2018-Apr-19 19:56N 33°08' E 132°11'228 9.4
2018-Apr-18 19:34N 33°29' E 136°42'9112.7
2018-Apr-18 12:24N 34°12' E 138°19'612.4
2018-Apr-18 11:57N 34°15' E 138°25'812.2
2018-Apr-18 11:15N 34°19' E 138°34'412.0
2018-Apr-18 10:57N 34°21' E 138°38'511.9
2018-Apr-18 10:30N 34°23' E 138°44'612.3
2018-Apr-18 10:00N 34°26' E 138°50'612.9
2018-Apr-18 09:30N 34°29' E 138°57'612.2
2018-Apr-18 09:00N 34°33' E 139°02'612.7
2018-Apr-18 08:30N 34°39' E 139°06'712.7
2018-Apr-18 07:58N 34°45' E 139°10'712.0
2018-Apr-18 07:25N 34°50' E 139°15'511.8
2018-Apr-18 07:00N 34°53' E 139°20'612.1
2018-Apr-18 06:30N 34°56' E 139°26'611.8
2018-Apr-18 06:00N 34°59' E 139°32'612.7
2018-Apr-18 05:30N 35°03' E 139°39'612.3
2018-Apr-18 05:00N 35°07' E 139°44'612.4
2018-Apr-18 04:30N 35°13' E 139°46'612.0
2018-Apr-18 04:00N 35°18' E 139°43'611.4
2018-Apr-18 03:30N 35°24' E 139°43'612.6
2018-Apr-18 03:00N 35°28' E 139°49'611.9
2018-Apr-18 02:30N 35°30' E 139°56'4 0.7
2018-Apr-17 20:45N 35°29' E 140°00'0 0.2
2018-Apr-17 20:30N 35°29' E 140°00'0 0.0
2018-Apr-17 19:54N 35°29' E 140°00'0 0.0
2018-Apr-17 18:09N 35°29' E 140°00'0 0.0
2018-Apr-17 18:00N 35°29' E 140°00'0 0.0
2018-Apr-17 17:27N 35°29' E 140°00'0 0.0
2018-Apr-17 14:15N 35°29' E 140°00'0 0.0
2018-Apr-17 11:33N 35°29' E 140°00'0 0.0
2018-Apr-17 11:24N 35°29' E 140°00'0 0.0
2018-Apr-17 05:00N 35°29' E 140°00'0 0.2
2018-Apr-17 04:30N 35°29' E 140°00'2 3.3
2018-Apr-17 04:00N 35°30' E 139°59'4 7.2
2018-Apr-17 03:30N 35°29' E 139°54'5 9.5
2018-Apr-17 03:00N 35°27' E 139°49'611.7
2018-Apr-17 02:30N 35°22' E 139°45'510.6
2018-Apr-17 02:00N 35°17' E 139°46'510.2
2018-Apr-17 01:30N 35°12' E 139°47'4 7.3
2018-Apr-17 01:00N 35°08' E 139°46'4 7.5
2018-Apr-17 00:30N 35°04' E 139°45'611.5
2018-Apr-17 00:00N 34°59' E 139°41'611.5
2018-Apr-16 23:30N 34°56' E 139°36'611.8
2018-Apr-16 22:59N 34°54' E 139°29'611.8
2018-Apr-16 22:29N 34°51' E 139°23'611.4
2018-Apr-16 22:00N 34°47' E 139°17'612.2
2018-Apr-16 21:29N 34°43' E 139°12'611.3
2018-Apr-16 20:59N 34°38' E 139°09'510.8
2018-Apr-16 20:30N 34°34' E 139°04'611.4
2018-Apr-16 20:00N 34°30' E 138°60'611.2
2018-Apr-16 19:28N 34°26' E 138°54'611.8
2018-Apr-16 19:00N 34°23' E 138°48'711.9
2018-Apr-16 18:25N 34°19' E 138°41'511.8
2018-Apr-16 17:59N 34°16' E 138°36'611.9
2018-Apr-16 17:30N 34°13' E 138°31'711.9
2018-Apr-16 16:55N 34°09' E 138°24'612.0
2018-Apr-16 16:27N 34°06' E 138°18'  

Dump ship's entire track history